sensor_id;sensor_type;location;lat;lon;timestamp;pressure;altitude;pressure_sealevel;temperature;humidity
69528;BME280;57136;51.986;4.468;2023-02-18T00:00:57;102326.19;;;9.69;100.00
69528;BME280;57136;51.986;4.468;2023-02-18T00:03:24;102323.69;;;9.72;100.00
69528;BME280;57136;51.986;4.468;2023-02-18T00:05:51;102317.53;;;9.70;100.00
69528;BME280;57136;51.986;4.468;2023-02-18T00:08:20;102325.25;;;9.67;100.00
69528;BME280;57136;51.986;4.468;2023-02-18T00:10:46;102311.94;;;9.58;100.00
69528;BME280;57136;51.986;4.468;2023-02-18T00:13:12;102302.41;;;9.58;100.00
69528;BME280;57136;51.986;4.468;2023-02-18T00:15:38;102307.31;;;9.49;100.00
69528;BME280;57136;51.986;4.468;2023-02-18T00:18:04;102298.34;;;9.39;100.00
69528;BME280;57136;51.986;4.468;2023-02-18T00:20:30;102291.84;;;9.26;100.00
69528;BME280;57136;51.986;4.468;2023-02-18T00:22:58;102283.56;;;9.38;100.00
69528;BME280;57136;51.986;4.468;2023-02-18T00:25:23;102293.72;;;9.31;100.00
69528;BME280;57136;51.986;4.468;2023-02-18T00:27:48;102293.38;;;9.20;100.00
69528;BME280;57136;51.986;4.468;2023-02-18T00:30:14;102297.91;;;9.27;100.00
69528;BME280;57136;51.986;4.468;2023-02-18T00:32:39;102293.28;;;9.44;100.00
69528;BME280;57136;51.986;4.468;2023-02-18T00:35:04;102292.81;;;9.04;100.00
69528;BME280;57136;51.986;4.468;2023-02-18T00:37:30;102289.34;;;9.04;100.00
69528;BME280;57136;51.986;4.468;2023-02-18T00:39:55;102281.38;;;9.25;100.00
69528;BME280;57136;51.986;4.468;2023-02-18T00:42:21;102282.47;;;9.32;100.00
69528;BME280;57136;51.986;4.468;2023-02-18T00:44:46;102281.22;;;9.20;100.00
69528;BME280;57136;51.986;4.468;2023-02-18T00:47:11;102291.94;;;9.29;100.00
69528;BME280;57136;51.986;4.468;2023-02-18T00:49:37;102277.59;;;9.15;100.00
69528;BME280;57136;51.986;4.468;2023-02-18T00:52:03;102268.91;;;9.14;100.00
69528;BME280;57136;51.986;4.468;2023-02-18T00:54:28;102273.38;;;9.19;100.00
69528;BME280;57136;51.986;4.468;2023-02-18T00:56:53;102263.53;;;9.10;100.00
69528;BME280;57136;51.986;4.468;2023-02-18T00:59:19;102252.88;;;9.02;100.00
69528;BME280;57136;51.986;4.468;2023-02-18T01:01:44;102249.59;;;9.08;100.00
69528;BME280;57136;51.986;4.468;2023-02-18T01:04:10;102263.25;;;9.01;100.00
69528;BME280;57136;51.986;4.468;2023-02-18T01:06:36;102258.25;;;9.34;100.00
69528;BME280;57136;51.986;4.468;2023-02-18T01:09:02;102250.97;;;9.24;100.00
69528;BME280;57136;51.986;4.468;2023-02-18T01:11:29;102257.56;;;9.40;100.00
69528;BME280;57136;51.986;4.468;2023-02-18T01:13:54;102257.03;;;9.23;100.00
69528;BME280;57136;51.986;4.468;2023-02-18T01:16:20;102266.94;;;9.07;100.00
69528;BME280;57136;51.986;4.468;2023-02-18T01:18:46;102256.03;;;9.19;100.00
69528;BME280;57136;51.986;4.468;2023-02-18T01:21:11;102256.03;;;9.19;100.00
69528;BME280;57136;51.986;4.468;2023-02-18T01:23:38;102257.63;;;9.41;100.00
69528;BME280;57136;51.986;4.468;2023-02-18T01:26:04;102241.97;;;9.12;100.00
69528;BME280;57136;51.986;4.468;2023-02-18T01:28:29;102251.16;;;9.28;100.00
69528;BME280;57136;51.986;4.468;2023-02-18T01:30:56;102234.06;;;9.09;100.00
69528;BME280;57136;51.986;4.468;2023-02-18T01:33:22;102236.38;;;9.27;100.00
69528;BME280;57136;51.986;4.468;2023-02-18T01:35:48;102243.19;;;9.24;100.00
69528;BME280;57136;51.986;4.468;2023-02-18T01:38:14;102245.84;;;9.25;100.00
69528;BME280;57136;51.986;4.468;2023-02-18T01:40:47;102244.81;;;9.20;100.00
69528;BME280;57136;51.986;4.468;2023-02-18T01:43:15;102243.63;;;9.38;100.00
69528;BME280;57136;51.986;4.468;2023-02-18T01:46:16;102224.25;;;9.28;100.00
69528;BME280;57136;51.986;4.468;2023-02-18T01:48:52;102231.72;;;9.44;100.00
69528;BME280;57136;51.986;4.468;2023-02-18T01:51:26;102230.03;;;9.19;100.00
69528;BME280;57136;51.986;4.468;2023-02-18T01:54:04;102226.25;;;9.37;100.00
69528;BME280;57136;51.986;4.468;2023-02-18T01:56:41;102220.63;;;9.50;100.00
69528;BME280;57136;51.986;4.468;2023-02-18T01:59:13;102219.34;;;9.37;100.00
69528;BME280;57136;51.986;4.468;2023-02-18T02:01:43;102212.88;;;9.24;100.00
69528;BME280;57136;51.986;4.468;2023-02-18T02:04:10;102206.47;;;9.42;100.00
69528;BME280;57136;51.986;4.468;2023-02-18T02:06:36;102202.59;;;9.56;100.00
69528;BME280;57136;51.986;4.468;2023-02-18T02:09:03;102196.03;;;9.69;100.00
69528;BME280;57136;51.986;4.468;2023-02-18T02:14:54;102183.03;;;9.40;100.00
69528;BME280;57136;51.986;4.468;2023-02-18T02:23:53;102177.91;;;9.43;100.00
69528;BME280;57136;51.986;4.468;2023-02-18T02:42:43;102118.56;;;9.61;100.00
69528;BME280;57136;51.986;4.468;2023-02-18T02:48:15;102109.38;;;9.73;100.00
69528;BME280;57136;51.986;4.468;2023-02-18T02:53:26;102099.84;;;9.74;100.00
69528;BME280;57136;51.986;4.468;2023-02-18T02:55:53;102099.84;;;9.74;100.00
69528;BME280;57136;51.986;4.468;2023-02-18T02:58:21;102088.41;;;9.69;100.00
69528;BME280;57136;51.986;4.468;2023-02-18T03:12:29;102091.38;;;9.81;100.00
69528;BME280;57136;51.986;4.468;2023-02-18T03:15:07;102083.19;;;9.67;100.00
69528;BME280;57136;51.986;4.468;2023-02-18T03:17:42;102073.47;;;9.62;100.00
69528;BME280;57136;51.986;4.468;2023-02-18T03:20:22;102081.97;;;9.56;100.00
69528;BME280;57136;51.986;4.468;2023-02-18T03:22:51;102079.81;;;9.41;100.00
69528;BME280;57136;51.986;4.468;2023-02-18T03:25:18;102071.72;;;9.61;100.00
69528;BME280;57136;51.986;4.468;2023-02-18T03:27:52;102061.63;;;9.73;100.00
69528;BME280;57136;51.986;4.468;2023-02-18T03:30:34;102049.50;;;9.43;100.00
69528;BME280;57136;51.986;4.468;2023-02-18T03:33:03;102034.00;;;9.46;100.00
69528;BME280;57136;51.986;4.468;2023-02-18T03:35:30;102042.53;;;9.40;100.00
69528;BME280;57136;51.986;4.468;2023-02-18T03:38:35;102026.19;;;9.46;100.00
69528;BME280;57136;51.986;4.468;2023-02-18T03:41:03;102028.44;;;9.64;100.00
69528;BME280;57136;51.986;4.468;2023-02-18T03:43:29;102027.88;;;9.44;100.00
69528;BME280;57136;51.986;4.468;2023-02-18T03:45:54;102025.00;;;9.35;100.00
69528;BME280;57136;51.986;4.468;2023-02-18T03:48:20;102018.34;;;9.44;100.00
69528;BME280;57136;51.986;4.468;2023-02-18T03:50:46;102009.63;;;9.42;100.00
69528;BME280;57136;51.986;4.468;2023-02-18T03:53:11;102022.00;;;9.51;100.00
69528;BME280;57136;51.986;4.468;2023-02-18T03:55:36;102013.19;;;9.46;100.00
69528;BME280;57136;51.986;4.468;2023-02-18T03:58:02;102015.97;;;9.52;100.00
69528;BME280;57136;51.986;4.468;2023-02-18T04:00:27;102009.72;;;9.46;100.00
69528;BME280;57136;51.986;4.468;2023-02-18T04:02:52;102010.88;;;9.57;100.00
69528;BME280;57136;51.986;4.468;2023-02-18T04:05:18;102007.31;;;9.53;100.00
69528;BME280;57136;51.986;4.468;2023-02-18T04:07:43;102014.84;;;9.74;100.00
69528;BME280;57136;51.986;4.468;2023-02-18T04:10:09;102008.72;;;9.42;100.00
69528;BME280;57136;51.986;4.468;2023-02-18T04:12:35;102009.94;;;9.55;100.00
69528;BME280;57136;51.986;4.468;2023-02-18T04:15:00;102005.81;;;9.62;100.00
69528;BME280;57136;51.986;4.468;2023-02-18T04:17:28;102006.72;;;9.64;100.00
69528;BME280;57136;51.986;4.468;2023-02-18T04:19:54;101997.56;;;9.46;100.00
69528;BME280;57136;51.986;4.468;2023-02-18T04:22:19;102000.09;;;9.43;100.00
69528;BME280;57136;51.986;4.468;2023-02-18T04:24:44;101995.03;;;9.48;100.00
69528;BME280;57136;51.986;4.468;2023-02-18T04:27:09;101990.88;;;9.54;100.00
69528;BME280;57136;51.986;4.468;2023-02-18T04:29:36;101993.28;;;9.48;100.00
69528;BME280;57136;51.986;4.468;2023-02-18T04:32:01;101987.63;;;9.63;100.00
69528;BME280;57136;51.986;4.468;2023-02-18T04:34:27;101998.50;;;9.48;100.00
69528;BME280;57136;51.986;4.468;2023-02-18T04:36:52;101994.22;;;9.50;100.00
69528;BME280;57136;51.986;4.468;2023-02-18T04:39:18;101987.44;;;9.57;100.00
69528;BME280;57136;51.986;4.468;2023-02-18T04:41:43;101977.13;;;9.60;100.00
69528;BME280;57136;51.986;4.468;2023-02-18T04:44:09;101968.28;;;9.53;100.00
69528;BME280;57136;51.986;4.468;2023-02-18T04:46:35;101966.59;;;9.89;100.00
69528;BME280;57136;51.986;4.468;2023-02-18T04:49:01;101956.59;;;9.71;100.00
69528;BME280;57136;51.986;4.468;2023-02-18T04:51:26;101960.03;;;9.70;100.00
69528;BME280;57136;51.986;4.468;2023-02-18T04:53:51;101937.34;;;9.66;100.00
69528;BME280;57136;51.986;4.468;2023-02-18T04:56:16;101955.16;;;9.82;100.00
69528;BME280;57136;51.986;4.468;2023-02-18T04:58:44;101940.84;;;9.66;100.00
69528;BME280;57136;51.986;4.468;2023-02-18T05:01:09;101954.97;;;9.74;100.00
69528;BME280;57136;51.986;4.468;2023-02-18T05:03:34;101959.91;;;9.65;100.00
69528;BME280;57136;51.986;4.468;2023-02-18T05:06:00;101950.06;;;9.53;100.00
69528;BME280;57136;51.986;4.468;2023-02-18T05:08:26;101958.34;;;9.72;100.00
69528;BME280;57136;51.986;4.468;2023-02-18T05:10:51;101955.84;;;9.77;100.00
69528;BME280;57136;51.986;4.468;2023-02-18T05:13:16;101949.88;;;9.81;100.00
69528;BME280;57136;51.986;4.468;2023-02-18T05:15:42;101955.72;;;9.70;100.00
69528;BME280;57136;51.986;4.468;2023-02-18T05:18:07;101948.69;;;9.68;100.00
69528;BME280;57136;51.986;4.468;2023-02-18T05:20:33;101953.50;;;9.86;100.00
69528;BME280;57136;51.986;4.468;2023-02-18T05:22:59;101945.78;;;9.90;100.00
69528;BME280;57136;51.986;4.468;2023-02-18T05:25:24;101944.69;;;9.81;100.00
69528;BME280;57136;51.986;4.468;2023-02-18T05:27:50;101925.53;;;9.79;100.00
69528;BME280;57136;51.986;4.468;2023-02-18T05:30:15;101929.78;;;9.75;100.00
69528;BME280;57136;51.986;4.468;2023-02-18T05:32:40;101923.56;;;9.68;100.00
69528;BME280;57136;51.986;4.468;2023-02-18T05:35:06;101924.44;;;9.69;100.00
69528;BME280;57136;51.986;4.468;2023-02-18T05:37:32;101933.97;;;9.68;100.00
69528;BME280;57136;51.986;4.468;2023-02-18T05:39:57;101931.03;;;9.56;100.00
69528;BME280;57136;51.986;4.468;2023-02-18T05:42:22;101924.13;;;9.56;100.00
69528;BME280;57136;51.986;4.468;2023-02-18T05:44:48;101930.59;;;9.72;100.00
69528;BME280;57136;51.986;4.468;2023-02-18T05:47:13;101918.75;;;9.50;100.00
69528;BME280;57136;51.986;4.468;2023-02-18T05:49:40;101929.16;;;9.50;100.00
69528;BME280;57136;51.986;4.468;2023-02-18T05:52:07;101929.19;;;9.85;100.00
69528;BME280;57136;51.986;4.468;2023-02-18T05:54:33;101919.38;;;9.75;100.00
69528;BME280;57136;51.986;4.468;2023-02-18T05:56:58;101912.78;;;9.54;100.00
69528;BME280;57136;51.986;4.468;2023-02-18T05:59:24;101916.16;;;9.50;100.00
69528;BME280;57136;51.986;4.468;2023-02-18T06:01:49;101928.72;;;9.67;100.00
69528;BME280;57136;51.986;4.468;2023-02-18T06:04:15;101923.31;;;9.59;100.00
69528;BME280;57136;51.986;4.468;2023-02-18T06:06:41;101906.50;;;9.46;100.00
69528;BME280;57136;51.986;4.468;2023-02-18T06:09:07;101918.78;;;9.52;100.00
69528;BME280;57136;51.986;4.468;2023-02-18T06:11:33;101908.25;;;9.47;100.00
69528;BME280;57136;51.986;4.468;2023-02-18T06:13:59;101919.31;;;9.72;100.00
69528;BME280;57136;51.986;4.468;2023-02-18T06:16:26;101912.06;;;9.60;100.00
69528;BME280;57136;51.986;4.468;2023-02-18T06:18:51;101918.91;;;9.56;100.00
69528;BME280;57136;51.986;4.468;2023-02-18T06:21:18;101924.25;;;9.63;100.00
69528;BME280;57136;51.986;4.468;2023-02-18T06:23:44;101927.78;;;9.65;100.00
69528;BME280;57136;51.986;4.468;2023-02-18T06:26:09;101910.41;;;9.64;100.00
69528;BME280;57136;51.986;4.468;2023-02-18T06:28:35;101904.38;;;9.65;100.00
69528;BME280;57136;51.986;4.468;2023-02-18T06:31:00;101923.00;;;9.80;100.00
69528;BME280;57136;51.986;4.468;2023-02-18T06:33:26;101922.75;;;9.71;100.00
69528;BME280;57136;51.986;4.468;2023-02-18T06:36:03;101905.19;;;9.64;100.00
69528;BME280;57136;51.986;4.468;2023-02-18T06:38:31;101920.81;;;9.64;100.00
69528;BME280;57136;51.986;4.468;2023-02-18T06:40:56;101895.50;;;9.56;100.00
69528;BME280;57136;51.986;4.468;2023-02-18T06:43:21;101905.41;;;9.71;100.00
69528;BME280;57136;51.986;4.468;2023-02-18T06:45:47;101905.19;;;9.64;100.00
69528;BME280;57136;51.986;4.468;2023-02-18T06:48:13;101905.50;;;9.74;100.00
69528;BME280;57136;51.986;4.468;2023-02-18T06:50:40;101921.88;;;9.70;100.00
69528;BME280;57136;51.986;4.468;2023-02-18T06:53:05;101917.31;;;9.62;100.00
69528;BME280;57136;51.986;4.468;2023-02-18T06:55:30;101904.16;;;9.57;100.00
69528;BME280;57136;51.986;4.468;2023-02-18T06:57:56;101919.56;;;9.83;100.00
69528;BME280;57136;51.986;4.468;2023-02-18T07:00:21;101913.81;;;9.61;100.00
69528;BME280;57136;51.986;4.468;2023-02-18T07:02:47;101910.66;;;9.73;100.00
69528;BME280;57136;51.986;4.468;2023-02-18T07:05:13;101913.47;;;9.47;100.00
69528;BME280;57136;51.986;4.468;2023-02-18T07:07:38;101899.53;;;9.45;100.00
69528;BME280;57136;51.986;4.468;2023-02-18T07:10:04;101901.84;;;9.68;100.00
69528;BME280;57136;51.986;4.468;2023-02-18T07:12:30;101898.75;;;9.48;100.00
69528;BME280;57136;51.986;4.468;2023-02-18T07:14:55;101912.50;;;9.77;100.00
69528;BME280;57136;51.986;4.468;2023-02-18T07:17:21;101892.44;;;9.73;100.00
69528;BME280;57136;51.986;4.468;2023-02-18T07:19:46;101907.19;;;9.72;100.00
69528;BME280;57136;51.986;4.468;2023-02-18T07:22:11;101907.13;;;9.71;100.00
69528;BME280;57136;51.986;4.468;2023-02-18T07:24:37;101902.00;;;9.74;100.00
69528;BME280;57136;51.986;4.468;2023-02-18T07:27:02;101900.97;;;9.67;100.00
69528;BME280;57136;51.986;4.468;2023-02-18T07:29:28;101898.22;;;9.63;100.00
69528;BME280;57136;51.986;4.468;2023-02-18T07:31:53;101895.78;;;9.67;100.00
69528;BME280;57136;51.986;4.468;2023-02-18T07:34:18;101903.44;;;9.63;100.00
69528;BME280;57136;51.986;4.468;2023-02-18T07:36:44;101901.50;;;9.54;100.00
69528;BME280;57136;51.986;4.468;2023-02-18T07:39:09;101899.03;;;9.58;100.00
69528;BME280;57136;51.986;4.468;2023-02-18T07:41:34;101896.72;;;9.71;100.00
69528;BME280;57136;51.986;4.468;2023-02-18T07:44:00;101896.78;;;9.72;100.00
69528;BME280;57136;51.986;4.468;2023-02-18T07:46:28;101889.09;;;9.79;100.00
69528;BME280;57136;51.986;4.468;2023-02-18T07:48:55;101899.56;;;9.80;100.00
69528;BME280;57136;51.986;4.468;2023-02-18T07:51:21;101911.09;;;9.92;100.00
69528;BME280;57136;51.986;4.468;2023-02-18T07:53:46;101907.59;;;9.89;100.00
69528;BME280;57136;51.986;4.468;2023-02-18T07:56:11;101900.22;;;9.71;100.00
69528;BME280;57136;51.986;4.468;2023-02-18T07:58:37;101903.16;;;9.85;100.00
69528;BME280;57136;51.986;4.468;2023-02-18T08:01:05;101924.22;;;9.59;100.00
69528;BME280;57136;51.986;4.468;2023-02-18T08:03:31;101909.66;;;9.68;100.00
69528;BME280;57136;51.986;4.468;2023-02-18T08:05:57;101918.94;;;9.58;100.00
69528;BME280;57136;51.986;4.468;2023-02-18T08:08:25;101917.03;;;9.86;100.00
69528;BME280;57136;51.986;4.468;2023-02-18T08:10:53;101916.19;;;9.87;100.00
69528;BME280;57136;51.986;4.468;2023-02-18T08:13:18;101918.31;;;10.02;100.00
69528;BME280;57136;51.986;4.468;2023-02-18T08:15:44;101920.31;;;9.77;100.00
69528;BME280;57136;51.986;4.468;2023-02-18T08:18:15;101918.75;;;9.50;100.00
69528;BME280;57136;51.986;4.468;2023-02-18T08:20:41;101925.88;;;9.57;100.00
69528;BME280;57136;51.986;4.468;2023-02-18T08:23:07;101920.69;;;9.57;100.00
69528;BME280;57136;51.986;4.468;2023-02-18T08:25:32;101920.78;;;9.62;100.00
69528;BME280;57136;51.986;4.468;2023-02-18T08:27:58;101920.19;;;9.39;100.00
69528;BME280;57136;51.986;4.468;2023-02-18T08:30:24;101920.34;;;9.45;100.00
69528;BME280;57136;51.986;4.468;2023-02-18T08:32:49;101920.72;;;9.59;100.00
69528;BME280;57136;51.986;4.468;2023-02-18T08:35:15;101919.59;;;9.49;100.00
69528;BME280;57136;51.986;4.468;2023-02-18T08:37:40;101922.47;;;9.60;100.00
69528;BME280;57136;51.986;4.468;2023-02-18T08:40:07;101916.44;;;9.61;100.00
69528;BME280;57136;51.986;4.468;2023-02-18T08:42:33;101917.69;;;9.77;100.00
69528;BME280;57136;51.986;4.468;2023-02-18T08:44:58;101919.81;;;9.92;100.00
69528;BME280;57136;51.986;4.468;2023-02-18T08:47:23;101925.06;;;9.60;100.00
69528;BME280;57136;51.986;4.468;2023-02-18T08:49:49;101930.16;;;9.89;100.00
69528;BME280;57136;51.986;4.468;2023-02-18T08:52:14;101938.69;;;9.83;100.00
69528;BME280;57136;51.986;4.468;2023-02-18T08:54:40;101925.09;;;9.95;100.00
69528;BME280;57136;51.986;4.468;2023-02-18T08:57:05;101930.97;;;9.88;100.00
69528;BME280;57136;51.986;4.468;2023-02-18T08:59:30;101950.13;;;9.90;100.00
69528;BME280;57136;51.986;4.468;2023-02-18T09:01:56;101955.69;;;10.04;100.00
69528;BME280;57136;51.986;4.468;2023-02-18T09:04:21;101945.41;;;10.10;100.00
69528;BME280;57136;51.986;4.468;2023-02-18T09:06:48;101950.38;;;9.99;100.00
69528;BME280;57136;51.986;4.468;2023-02-18T09:09:14;101939.63;;;9.87;100.00
69528;BME280;57136;51.986;4.468;2023-02-18T09:11:40;101958.38;;;10.09;100.00
69528;BME280;57136;51.986;4.468;2023-02-18T09:14:05;101954.75;;;10.02;100.00
69528;BME280;57136;51.986;4.468;2023-02-18T09:16:30;101958.38;;;10.07;100.00
69528;BME280;57136;51.986;4.468;2023-02-18T09:18:56;101951.63;;;10.15;100.00
69528;BME280;57136;51.986;4.468;2023-02-18T09:21:22;101945.09;;;9.96;100.00
69528;BME280;57136;51.986;4.468;2023-02-18T09:23:49;101971.22;;;10.01;100.00
69528;BME280;57136;51.986;4.468;2023-02-18T09:26:16;101957.19;;;9.94;100.00
69528;BME280;57136;51.986;4.468;2023-02-18T09:28:45;101975.59;;;10.02;100.00
69528;BME280;57136;51.986;4.468;2023-02-18T09:31:17;101974.56;;;9.95;100.00
69528;BME280;57136;51.986;4.468;2023-02-18T09:33:49;101981.47;;;9.93;100.00
69528;BME280;57136;51.986;4.468;2023-02-18T09:36:16;101971.78;;;9.87;100.00
69528;BME280;57136;51.986;4.468;2023-02-18T09:38:41;101961.19;;;9.81;100.00
69528;BME280;57136;51.986;4.468;2023-02-18T09:41:29;101978.19;;;10.02;100.00
69528;BME280;57136;51.986;4.468;2023-02-18T09:44:05;101970.28;;;9.97;100.00
69528;BME280;57136;51.986;4.468;2023-02-18T09:46:47;101992.97;;;10.03;100.00
69528;BME280;57136;51.986;4.468;2023-02-18T09:49:36;102001.47;;;9.96;100.00
69528;BME280;57136;51.986;4.468;2023-02-18T09:52:11;101979.78;;;9.95;100.00
69528;BME280;57136;51.986;4.468;2023-02-18T09:54:37;101990.31;;;10.00;100.00
69528;BME280;57136;51.986;4.468;2023-02-18T09:57:04;101983.03;;;9.86;100.00
69528;BME280;57136;51.986;4.468;2023-02-18T09:59:31;101977.34;;;10.03;100.00
69528;BME280;57136;51.986;4.468;2023-02-18T10:01:57;101980.63;;;9.96;100.00
69528;BME280;57136;51.986;4.468;2023-02-18T10:04:42;101985.06;;;9.98;100.00
69528;BME280;57136;51.986;4.468;2023-02-18T10:07:18;101982.66;;;10.06;100.00
69528;BME280;57136;51.986;4.468;2023-02-18T10:09:47;102005.66;;;10.24;100.00
69528;BME280;57136;51.986;4.468;2023-02-18T10:12:17;101986.28;;;10.13;100.00
69528;BME280;57136;51.986;4.468;2023-02-18T10:14:48;101990.47;;;10.41;100.00
69528;BME280;57136;51.986;4.468;2023-02-18T10:17:15;102003.72;;;10.51;100.00
69528;BME280;57136;51.986;4.468;2023-02-18T10:19:43;102001.16;;;10.17;100.00
69528;BME280;57136;51.986;4.468;2023-02-18T10:22:11;102003.09;;;10.26;100.00
69528;BME280;57136;51.986;4.468;2023-02-18T10:24:40;102017.41;;;10.42;100.00
69528;BME280;57136;51.986;4.468;2023-02-18T10:27:07;102024.06;;;10.30;100.00
69528;BME280;57136;51.986;4.468;2023-02-18T10:29:34;102022.09;;;10.22;100.00
69528;BME280;57136;51.986;4.468;2023-02-18T10:34:48;102006.44;;;10.20;100.00
69528;BME280;57136;51.986;4.468;2023-02-18T10:46:06;102022.88;;;10.53;100.00
69528;BME280;57136;51.986;4.468;2023-02-18T10:51:57;102025.13;;;10.75;100.00
69528;BME280;57136;51.986;4.468;2023-02-18T10:54:26;102032.94;;;10.74;100.00
69528;BME280;57136;51.986;4.468;2023-02-18T10:57:17;102033.53;;;10.62;100.00
69528;BME280;57136;51.986;4.468;2023-02-18T11:02:25;102017.44;;;10.82;100.00
69528;BME280;57136;51.986;4.468;2023-02-18T11:04:54;102010.63;;;10.88;100.00
69528;BME280;57136;51.986;4.468;2023-02-18T11:07:29;102025.97;;;10.74;100.00
69528;BME280;57136;51.986;4.468;2023-02-18T11:09:57;102023.72;;;10.90;100.00
69528;BME280;57136;51.986;4.468;2023-02-18T11:12:47;102021.06;;;10.87;100.00
69528;BME280;57136;51.986;4.468;2023-02-18T11:17:40;102028.25;;;10.99;100.00
69528;BME280;57136;51.986;4.468;2023-02-18T11:20:33;102030.50;;;10.82;100.00
69528;BME280;57136;51.986;4.468;2023-02-18T11:25:32;102021.97;;;10.90;100.00
69528;BME280;57136;51.986;4.468;2023-02-18T11:28:04;102020.16;;;11.28;100.00
69528;BME280;57136;51.986;4.468;2023-02-18T11:30:38;102021.03;;;11.27;100.00
69528;BME280;57136;51.986;4.468;2023-02-18T11:33:23;102012.91;;;11.13;100.00
69528;BME280;57136;51.986;4.468;2023-02-18T11:35:53;102030.53;;;11.23;100.00
69528;BME280;57136;51.986;4.468;2023-02-18T11:38:28;102024.88;;;11.03;100.00
69528;BME280;57136;51.986;4.468;2023-02-18T11:41:06;102023.88;;;10.98;100.00
69528;BME280;57136;51.986;4.468;2023-02-18T11:43:33;101999.56;;;10.99;100.00
69528;BME280;57136;51.986;4.468;2023-02-18T11:46:16;102022.94;;;10.94;100.00
69528;BME280;57136;51.986;4.468;2023-02-18T11:48:44;102022.47;;;11.12;100.00
69528;BME280;57136;51.986;4.468;2023-02-18T11:51:42;102014.38;;;11.00;100.00
69528;BME280;57136;51.986;4.468;2023-02-18T11:54:26;102015.28;;;11.00;100.00
69528;BME280;57136;51.986;4.468;2023-02-18T11:56:59;102014.97;;;10.88;100.00
69528;BME280;57136;51.986;4.468;2023-02-18T11:59:28;102007.19;;;10.89;100.00
69528;BME280;57136;51.986;4.468;2023-02-18T12:02:01;102003.09;;;11.01;100.00
69528;BME280;57136;51.986;4.468;2023-02-18T12:04:35;102021.41;;;11.04;100.00
69528;BME280;57136;51.986;4.468;2023-02-18T12:07:22;102006.00;;;11.15;100.00
69528;BME280;57136;51.986;4.468;2023-02-18T12:09:51;102010.72;;;11.33;100.00
69528;BME280;57136;51.986;4.468;2023-02-18T12:12:31;102005.78;;;11.48;100.00
69528;BME280;57136;51.986;4.468;2023-02-18T12:15:00;102009.38;;;11.99;100.00
69528;BME280;57136;51.986;4.468;2023-02-18T12:26:23;102007.19;;;12.84;100.00
69528;BME280;57136;51.986;4.468;2023-02-18T12:36:51;102012.88;;;12.57;100.00
69528;BME280;57136;51.986;4.468;2023-02-18T12:45:16;102004.06;;;11.96;100.00
69528;BME280;57136;51.986;4.468;2023-02-18T12:48:08;102004.09;;;11.98;100.00
69528;BME280;57136;51.986;4.468;2023-02-18T12:50:51;102002.16;;;12.37;100.00
69528;BME280;57136;51.986;4.468;2023-02-18T13:13:19;102002.44;;;12.57;100.00
69528;BME280;57136;51.986;4.468;2023-02-18T13:16:15;101985.06;;;12.61;100.00
69528;BME280;57136;51.986;4.468;2023-02-18T13:18:43;101997.78;;;12.37;100.00
69528;BME280;57136;51.986;4.468;2023-02-18T13:21:13;102006.53;;;12.39;100.00
69528;BME280;57136;51.986;4.468;2023-02-18T13:26:12;102024.16;;;11.99;100.00
69528;BME280;57136;51.986;4.468;2023-02-18T13:31:33;102009.22;;;11.92;100.00
69528;BME280;57136;51.986;4.468;2023-02-18T13:34:26;102004.78;;;11.89;100.00
69528;BME280;57136;51.986;4.468;2023-02-18T13:39:49;102012.22;;;12.12;100.00
69528;BME280;57136;51.986;4.468;2023-02-18T13:45:03;102012.44;;;12.27;100.00
69528;BME280;57136;51.986;4.468;2023-02-18T13:50:32;101996.28;;;12.55;100.00
69528;BME280;57136;51.986;4.468;2023-02-18T13:55:53;102006.84;;;12.59;100.00
69528;BME280;57136;51.986;4.468;2023-02-18T13:58:34;102000.06;;;12.74;100.00
69528;BME280;57136;51.986;4.468;2023-02-18T14:01:04;102004.75;;;12.98;100.00
69528;BME280;57136;51.986;4.468;2023-02-18T14:06:30;101996.53;;;12.72;100.00
69528;BME280;57136;51.986;4.468;2023-02-18T14:11:47;102016.53;;;12.67;100.00
69528;BME280;57136;51.986;4.468;2023-02-18T14:14:32;102018.91;;;12.50;100.00
69528;BME280;57136;51.986;4.468;2023-02-18T14:20:21;102028.53;;;12.52;100.00
69528;BME280;57136;51.986;4.468;2023-02-18T14:22:45;102016.19;;;12.45;100.00
69528;BME280;57136;51.986;4.468;2023-02-18T14:27:49;102026.97;;;12.10;100.00
69528;BME280;57136;51.986;4.468;2023-02-18T14:32:48;102024.09;;;11.97;100.00
69528;BME280;57136;51.986;4.468;2023-02-18T14:46:07;102016.25;;;11.96;100.00
69528;BME280;57136;51.986;4.468;2023-02-18T14:51:05;102021.00;;;11.71;100.00
69528;BME280;57136;51.986;4.468;2023-02-18T14:53:31;102014.13;;;11.76;100.00
69528;BME280;57136;51.986;4.468;2023-02-18T14:56:04;102011.06;;;11.51;100.00
69528;BME280;57136;51.986;4.468;2023-02-18T14:58:36;102015.31;;;11.46;100.00
69528;BME280;57136;51.986;4.468;2023-02-18T15:03:46;102020.75;;;11.57;100.00
69528;BME280;57136;51.986;4.468;2023-02-18T15:08:54;102026.25;;;11.27;100.00
69528;BME280;57136;51.986;4.468;2023-02-18T15:11:21;102023.69;;;11.28;100.00
69528;BME280;57136;51.986;4.468;2023-02-18T15:13:54;102028.50;;;11.52;100.00
69528;BME280;57136;51.986;4.468;2023-02-18T15:16:31;102020.09;;;11.24;100.00
69528;BME280;57136;51.986;4.468;2023-02-18T15:18:59;102023.63;;;11.25;100.00
69528;BME280;57136;51.986;4.468;2023-02-18T15:21:53;102016.44;;;11.15;100.00
69528;BME280;57136;51.986;4.468;2023-02-18T15:24:32;102006.13;;;11.21;100.00
69528;BME280;57136;51.986;4.468;2023-02-18T15:27:02;102017.47;;;11.23;100.00
69528;BME280;57136;51.986;4.468;2023-02-18T15:29:34;102015.50;;;11.11;100.00
69528;BME280;57136;51.986;4.468;2023-02-18T15:32:19;102012.03;;;11.12;100.00
69528;BME280;57136;51.986;4.468;2023-02-18T15:34:48;102018.59;;;10.94;100.00